AirNav   Bose Proflight Series 2 Wireless Aviation Headset
 
 272 users online  

MY72 Isle Private Airport
Isle, Minnesota, USA

GOING TO ISLE?


FAA INFORMATION EFFECTIVE 07 NOVEMBER 2019

Location

FAA Identifier: MY72
Lat/Long: 46-09-34.8370N 093-27-40.8510W
46-09.580617N 093-27.680850W
46.1596769,-93.4613475
(estimated)
Elevation: 1271 ft. / 387 m (estimated)
Variation: 03E (1985)
From city: 2 miles NE of ISLE, MN
Time zone: UTC -6 (UTC -5 during Daylight Saving Time)
Zip code: 56342

Airport Operations

Airport use: Private use. Permission required prior to landing
Activation date: 07/1956
Control tower: no
ARTCC: MINNEAPOLIS CENTER
FSS: PRINCETON FLIGHT SERVICE STATION
Attendance: UNATNDD
Wind indicator: yes
Segmented circle: no

Airport Communications

CTAF: 122.9
WX AWOS-3 at JMR (18 nm SE): 123.925 (320-679-1629)

Nearby radio navigation aids

NDB name  Hdg/Dist  Freq  Var  ID
MORA334/18.032700WJMR .--- -- .-.
AITKIN159/24.939700EAIT .- .. -
MOOSE LAKE238/31.336202EMZH -- --.. ....
RUSH CITY321/34.928202EROS .-. --- ...
PRINCETON007/36.236803EPNM .--. -. --
RIPLEY080/37.040403EXCR -..- -.-. .-.
CAMBRIDGE346/37.135001ECBG -.-. -... --.
LITTLE FALLS068/38.735903ELXL .-.. -..- .-..

Airport Services

Parking: tiedowns
Airframe service: NONE
Powerplant service: NONE
Bottled oxygen: NONE
Bulk oxygen: NONE

Runway Information

Runway 16/34

Dimensions: 2460 x 160 ft. / 750 x 49 m
Surface: turf, in fair condition
RUNWAY 16  RUNWAY 34
Traffic pattern: leftleft
Markings: nonenone
Runway end identifier lights: nono
Obstructions: 50 ft. trees, 600 ft. from runway, 100 ft. right of centerline, 12:1 slope to clear65 ft. trees, 600 ft. from runway, 225 ft. left of centerline, 10:1 slope to clear

Airport Ownership and Management from official FAA records

Ownership: Publicly-owned
Owner: CITY OF ISLE MINNESOTA
P O BOX 427
ISLE, MN 56342
Phone 320-676-3641
Manager: ISLE FLYING CLUB INC.
32308 160TH ST
ISLE, MN 56342
Phone (320) 674-0065
ALSO: PATRICK MOENKHAUS 320-674-0065

Airport Operational Statistics

Aircraft based on the field: 4
Single engine airplanes: 4
    
Aircraft operations: avg 50/month *
83% local general aviation
17% transient general aviation
* for 12-month period ending 30 June 2016

Additional Remarks

FLYING CLUB MEMBERSHIP OR PERMISSION FROM A FLYING CLUB MEMBER IS REQUIRED TO LAND AT THE ISLE PRIVATE AIRPORT.
FOR CD CTC MINNEAPOLIS ARTCC AT 651-463-5588.

Instrument Procedures

There are no published instrument procedures at MY72.

Some nearby airports with instrument procedures:

KJMR - Mora Municipal Airport (18 nm SE)
04W - Field of Dreams Airport (25 nm E)
KAIT - Aitkin Municipal Airport-Steve Kurtz Field (25 nm N)
KHZX - Isedor Iverson Airport (28 nm N)
KMZH - Moose Lake Carlton County Airport (31 nm NE)
 
Loc | Ops | Rwys | IFR | FBO | Links
Com | Nav | Svcs | Stats | Notes
Area around MY72 (Isle Private Airport)
 
Road maps at: MapQuest Bing Google
 
Aerial photo
WARNING: Photo may not be current or correct
Aerial photo of MY72 (Isle Private Airport)
Photo by Dan Johnson
Photo taken 07-Nov-2018
looking northeast.

Do you have a better or more recent aerial photo of Isle Private Airport that you would like to share? If so, please send us your photo.

 
Sectional chart

 
Airport distance calculator
Flying to Isle Private Airport? Find the distance to fly.

From to MY72

Sunrise and sunset
Times for 14-Nov-2019
 Local
(UTC-6)
 Zulu
(UTC)
Morning civil twilight06:4212:42
Sunrise07:1413:14
Sunset16:4222:42
Evening civil twilight17:1523:15

Current date and time
Zulu (UTC)  14-Nov-2019 08:53:03
Local (UTC-6)  14-Nov-2019 02:53:03
 
METAR
KJMR 
18nm SE 
140836Z AUTO 00000KT 10SM BKN027 M07/M11 A3015 RMK AO2
KAIT 
24nm N 
140835Z AUTO 28005KT 10SM -SN OVC023 M08/M13 A3010 RMK AO2
K04W 
25nm E 
140836Z AUTO 32006KT 10SM OVC027 M06/M11 A3013 RMK AO2
KHZX 
28nm N 
140836Z AUTO 29006KT 10SM OVC023 M07/M11 A3011 RMK AO2
KBRD 
31nm NW 
140753Z AUTO 31005KT 10SM OVC022 M06/M12 A3012 RMK AO2 SLP222 T10611122
KMZH 
31nm NE 
140837Z AUTO 30003KT 10SM -SN OVC023 M06/M11 A3010 RMK AO2
KROS 
35nm SE 
140837Z AUTO 30005KT 10SM OVC029 M06/M11 A3015 RMK AO2 T10601110
KCBG 
36nm S 
140839Z AUTO 32005KT 10SM -SN OVC025 M05/M11 A3015 RMK AO2
TAF
KBRD 
31nm NW 
140539Z 1406/1506 32006KT P6SM VCSH OVC025 FM141200 26005KT P6SM FEW250 FM142000 24010KT P6SM OVC028 FM150000 26008G15KT P6SM OVC023 FM150200 28006KT P6SM BKN018 FM150400 29005KT P6SM BKN020 FM150500 30005KT P6SM BKN045
NOTAMs
Click for the latest NOTAMs
NOTAMs are issued by the DoD/FAA and will open in a separate window not controlled by AirNav.

 

 
 

Would you like to see your business listed on this page?

 If your business provides an interesting product or service to pilots, flight crews, aircraft, or users of the Isle Private Airport, you should consider listing it here.  To start the listing process, click on the button below
 
Add a business
 

Other Pages about Isle Private Airport

Update a link
 
Copyright © AirNav, LLC. All rights reserved. Privacy Policy  Contact